Time;durP1;ratioP1;P1;durP2;ratioP2;P2;SDS_P1;SDS_P2;PMS_P1;PMS_P2;Temp;Humidity;BMP_temperature;BMP_pressure;BME280_temperature;BME280_humidity;BME280_pressure;Samples;Min_cycle;Max_cycle;Signal;HPM_P1;HPM_P2
2023/02/10 00:01:25;;;;;;;;;34.00;32.00;15.00;32.70;;;;;;110367;1252;53939;-60
2023/02/10 00:03:53;;;;;;;;;39.25;30.75;15.00;32.90;;;;;;110458;1247;49243;-62
2023/02/10 00:06:23;;;;;;;;;38.50;32.50;15.00;32.70;;;;;;110366;1252;49590;-60
2023/02/10 00:08:52;;;;;;;;;34.50;29.00;15.00;32.70;;;;;;110417;1248;45360;-60
2023/02/10 00:11:19;;;;;;;;;37.00;33.00;15.00;32.70;;;;;;110323;1252;55618;-59
2023/02/10 00:13:46;;;;;;;;;34.00;31.00;15.00;32.70;;;;;;110494;1252;53878;-60
2023/02/10 00:16:14;;;;;;;;;40.00;35.00;15.00;32.90;;;;;;110471;1252;50407;-61
2023/02/10 00:18:42;;;;;;;;;36.00;33.00;15.00;32.80;;;;;;110366;1248;49533;-60
2023/02/10 00:21:12;;;;;;;;;34.50;31.00;15.00;33.00;;;;;;110386;1248;46025;-61
2023/02/10 00:23:40;;;;;;;;;35.50;30.75;14.90;32.90;;;;;;110316;1248;56322;-61
2023/02/10 00:26:10;;;;;;;;;40.33;32.00;14.90;32.70;;;;;;110513;1248;53332;-61
2023/02/10 00:28:37;;;;;;;;;31.33;29.33;14.90;32.90;;;;;;110438;1251;49335;-61
2023/02/10 00:31:06;;;;;;;;;34.67;31.00;14.90;32.70;;;;;;110348;1248;50726;-60
2023/02/10 00:33:34;;;;;;;;;36.67;32.33;14.90;32.70;;;;;;110486;1252;45818;-60
2023/02/10 00:36:05;;;;;;;;;37.00;32.50;14.90;32.70;;;;;;110374;1252;55566;-58
2023/02/10 00:38:32;;;;;;;;;34.50;31.00;14.90;32.70;;;;;;110493;1248;54220;-62
2023/02/10 00:41:07;;;;;;;;;33.67;31.00;14.90;32.70;;;;;;110374;1247;49155;-60
2023/02/10 00:43:36;;;;;;;;;32.25;29.25;14.90;32.60;;;;;;110438;1250;49118;-61
2023/02/10 00:46:03;;;;;;;;;36.00;31.00;14.90;32.70;;;;;;110469;1252;45308;-61
2023/02/10 00:48:30;;;;;;;;;37.00;29.00;14.90;32.70;;;;;;110398;1252;55926;-61
2023/02/10 00:50:58;;;;;;;;;39.50;31.50;14.90;32.70;;;;;;110387;1247;53753;-61
2023/02/10 00:53:25;;;;;;;;;32.00;29.50;14.80;32.70;;;;;;110385;1248;50864;-60
2023/02/10 00:55:52;;;;;;;;;36.00;31.00;14.90;32.70;;;;;;110387;1250;49705;-60
2023/02/10 00:58:19;;;;;;;;;34.00;30.00;14.80;32.60;;;;;;110399;1248;45709;-60
2023/02/10 01:00:46;;;;;;;;;33.00;29.00;14.80;32.20;;;;;;110398;1249;56047;-61
2023/02/10 01:03:14;;;;;;;;;39.00;32.67;14.80;32.70;;;;;;110372;1252;53472;-61
2023/02/10 01:05:41;;;;;;;;;35.50;33.00;14.80;32.90;;;;;;110523;1252;49398;-61
2023/02/10 01:08:08;;;;;;;;;30.00;26.00;14.80;32.80;;;;;;110254;1248;49122;-59
2023/02/10 01:10:35;;;;;;;;;40.00;33.00;14.80;32.70;;;;;;110378;1247;45616;-60
2023/02/10 01:13:03;;;;;;;;;34.67;30.00;14.80;32.70;;;;;;110447;1252;56416;-61
2023/02/10 01:15:31;;;;;;;;;40.00;34.00;14.80;32.70;;;;;;110453;1252;54118;-60
2023/02/10 01:17:58;;;;;;;;;36.00;30.00;14.70;32.90;;;;;;110374;1248;50384;-60
2023/02/10 01:20:25;;;;;;;;;35.67;33.00;14.70;32.60;;;;;;110375;1248;49863;-59
2023/02/10 01:22:53;;;;;;;;;33.00;31.00;14.70;32.60;;;;;;110380;1248;46015;-60
2023/02/10 01:25:20;;;;;;;;;36.33;31.00;14.70;32.70;;;;;;110384;1248;55929;-60
2023/02/10 01:27:47;;;;;;;;;29.00;27.67;14.70;32.70;;;;;;110364;1248;54924;-60
2023/02/10 01:30:15;;;;;;;;;31.50;28.50;14.70;32.70;;;;;;110386;1248;50287;-61
2023/02/10 01:32:42;;;;;;;;;34.00;30.00;14.70;32.70;;;;;;110405;1252;50516;-61
2023/02/10 01:35:09;;;;;;;;;35.00;30.00;14.70;32.70;;;;;;110380;1250;45590;-60
2023/02/10 01:37:37;;;;;;;;;30.00;27.00;14.70;32.90;;;;;;110337;1252;56831;-60
2023/02/10 01:40:05;;;;;;;;;37.50;32.00;14.70;32.60;;;;;;110387;1252;53754;-60
2023/02/10 01:42:32;;;;;;;;;31.00;28.00;14.70;32.60;;;;;;110476;1249;48876;-60
2023/02/10 01:45:24;;;;;;;;;39.00;32.00;14.70;32.60;;;;;;110464;1252;49613;-59
2023/02/10 01:47:53;;;;;;;;;32.33;29.00;14.70;32.70;;;;;;110336;1247;45467;-59
2023/02/10 01:50:24;;;;;;;;;36.00;31.50;14.70;32.80;;;;;;110284;1252;55468;-59
2023/02/10 01:52:51;;;;;;;;;36.50;31.00;14.70;32.60;;;;;;110474;1252;53449;-59
2023/02/10 01:55:21;;;;;;;;;36.50;27.00;14.70;32.80;;;;;;110324;1252;49242;-59
2023/02/10 01:57:49;;;;;;;;;39.67;33.00;14.60;32.60;;;;;;110479;1247;49291;-60
2023/02/10 02:00:16;;;;;;;;;33.00;29.00;14.70;32.60;;;;;;110442;1249;46060;-62
2023/02/10 02:02:44;;;;;;;;;33.75;30.25;14.60;32.50;;;;;;110403;1252;55283;-61
2023/02/10 02:05:30;;;;;;;;;37.00;31.00;14.60;33.00;;;;;;110470;1248;54295;-61
2023/02/10 02:08:01;;;;;;;;;35.67;32.00;14.60;32.50;;;;;;110263;1249;49462;-60
2023/02/10 02:10:39;;;;;;;;;37.50;30.50;14.60;32.50;;;;;;110421;1252;49009;-61
2023/02/10 02:13:28;;;;;;;;;32.00;30.00;14.60;32.70;;;;;;110406;1248;45738;-61
2023/02/10 02:16:18;;;;;;;;;32.00;30.00;14.60;32.50;;;;;;110353;1248;55533;-59
2023/02/10 02:19:15;;;;;;;;;33.00;30.00;14.60;32.50;;;;;;110264;1252;54333;-60
2023/02/10 02:22:02;;;;;;;;;31.00;30.00;14.60;32.40;;;;;;110401;1248;49323;-62
2023/02/10 02:24:41;;;;;;;;;32.00;28.50;14.60;32.50;;;;;;110370;1252;49764;-61
2023/02/10 02:27:14;;;;;;;;;33.50;31.00;14.60;32.50;;;;;;110437;1252;45924;-60
2023/02/10 02:30:05;;;;;;;;;37.67;33.00;14.60;32.50;;;;;;110422;1252;55742;-60
2023/02/10 02:33:04;;;;;;;;;39.00;33.00;14.60;32.50;;;;;;110448;1252;54491;-61
2023/02/10 02:35:38;;;;;;;;;41.00;32.00;14.50;32.50;;;;;;110283;1250;50208;-60
2023/02/10 02:38:06;;;;;;;;;32.67;29.67;14.50;32.50;;;;;;110440;1252;49198;-60
2023/02/10 02:40:33;;;;;;;;;33.00;30.67;14.60;32.50;;;;;;110489;1248;45547;-61
2023/02/10 02:43:00;;;;;;;;;31.00;28.50;14.60;32.50;;;;;;110418;1248;56031;-62
2023/02/10 02:45:43;;;;;;;;;33.33;30.33;14.50;32.50;;;;;;110492;1249;53401;-64
2023/02/10 02:48:16;;;;;;;;;35.00;31.00;14.50;33.10;;;;;;110469;1252;49391;-61
2023/02/10 02:50:48;;;;;;;;;32.75;29.00;14.50;32.50;;;;;;110458;1252;49615;-64
2023/02/10 02:53:16;;;;;;;;;32.00;29.00;14.50;32.60;;;;;;110496;1248;46180;-61
2023/02/10 02:56:04;;;;;;;;;33.00;26.00;14.50;32.40;;;;;;110345;1247;55059;-61
2023/02/10 02:58:53;;;;;;;;;36.00;33.00;14.50;32.50;;;;;;110396;1250;54115;-61
2023/02/10 03:01:49;;;;;;;;;29.33;28.00;14.50;32.50;;;;;;110214;1253;49714;-59
2023/02/10 03:04:17;;;;;;;;;33.00;31.00;14.50;32.60;;;;;;110338;1249;50243;-60
2023/02/10 03:06:44;;;;;;;;;32.00;29.00;14.40;32.50;;;;;;110297;1249;45687;-60
2023/02/10 03:09:11;;;;;;;;;34.67;31.00;14.50;32.40;;;;;;110424;1249;56195;-61
2023/02/10 03:11:38;;;;;;;;;31.75;28.75;14.50;32.50;;;;;;110369;1248;55108;-60
2023/02/10 03:14:05;;;;;;;;;34.00;30.00;14.50;32.50;;;;;;110348;1248;49885;-60
2023/02/10 03:16:32;;;;;;;;;29.00;26.00;14.50;32.50;;;;;;110315;1248;49943;-60
2023/02/10 03:18:59;;;;;;;;;35.67;30.00;14.50;32.50;;;;;;110321;1252;45188;-60
2023/02/10 03:21:26;;;;;;;;;32.00;30.33;14.40;32.60;;;;;;110293;1248;55442;-59
2023/02/10 03:23:53;;;;;;;;;36.00;31.00;14.40;32.40;;;;;;110270;1252;54371;-60
2023/02/10 03:26:20;;;;;;;;;38.33;31.67;14.40;32.50;;;;;;110334;1252;49823;-61
2023/02/10 03:28:47;;;;;;;;;36.00;31.00;14.40;32.40;;;;;;110456;1248;49412;-61
2023/02/10 03:31:14;;;;;;;;;30.00;26.67;14.40;32.40;;;;;;110283;1249;45679;-60
2023/02/10 03:33:41;;;;;;;;;36.00;31.00;14.40;32.40;;;;;;110358;1252;56620;-60
2023/02/10 03:36:08;;;;;;;;;38.25;31.00;14.30;32.40;;;;;;110340;1252;54746;-61
2023/02/10 03:38:35;;;;;;;;;36.50;33.00;14.30;32.40;;;;;;110238;1253;49252;-61
2023/02/10 03:41:02;;;;;;;;;37.67;32.00;14.30;32.40;;;;;;110271;1248;48979;-59
2023/02/10 03:43:29;;;;;;;;;31.00;29.33;14.30;32.40;;;;;;110369;1254;45300;-58
2023/02/10 03:46:00;;;;;;;;;35.00;31.00;14.30;32.70;;;;;;110350;1249;55419;-61
2023/02/10 03:48:31;;;;;;;;;32.00;30.75;14.30;32.50;;;;;;110255;1249;54043;-61
2023/02/10 03:50:59;;;;;;;;;37.00;31.50;14.30;32.50;;;;;;109333;1248;1284228;-60
2023/02/10 03:53:26;;;;;;;;;;;14.30;32.50;;;;;;110315;1252;49820;-60
2023/02/10 03:55:54;;;;;;;;;37.00;30.00;14.30;32.50;;;;;;110285;1252;46347;-61
2023/02/10 03:58:21;;;;;;;;;37.50;30.50;14.30;32.40;;;;;;110212;1249;56551;-60
2023/02/10 04:00:48;;;;;;;;;38.00;30.00;14.20;32.30;;;;;;110234;1247;54635;-60
2023/02/10 04:03:16;;;;;;;;;36.50;29.50;14.30;32.30;;;;;;110229;1248;49060;-61
2023/02/10 04:05:43;;;;;;;;;33.25;31.00;14.30;32.40;;;;;;110300;1252;50404;-60
2023/02/10 04:08:10;;;;;;;;;29.00;27.00;14.20;32.30;;;;;;110386;1252;45902;-60
2023/02/10 04:10:36;;;;;;;;;36.00;31.00;14.30;32.40;;;;;;110417;1248;55603;-60
2023/02/10 04:13:04;;;;;;;;;33.00;30.67;14.20;32.30;;;;;;110322;1252;55317;-61
2023/02/10 04:15:31;;;;;;;;;34.50;31.00;14.20;32.30;;;;;;110328;1247;49497;-60
2023/02/10 04:17:58;;;;;;;;;32.50;31.00;14.20;32.30;;;;;;110343;1247;49482;-60
2023/02/10 04:20:25;;;;;;;;;33.00;31.00;14.20;32.30;;;;;;110332;1252;45791;-59
2023/02/10 04:22:52;;;;;;;;;31.00;28.00;14.20;32.20;;;;;;110311;1248;56039;-60
2023/02/10 04:25:19;;;;;;;;;38.00;33.33;14.20;32.30;;;;;;110399;1247;54895;-60
2023/02/10 04:27:46;;;;;;;;;40.50;34.00;14.20;32.40;;;;;;110334;1248;50345;-60
2023/02/10 04:30:13;;;;;;;;;42.00;31.00;14.20;32.30;;;;;;110144;1253;50907;-60
2023/02/10 04:32:41;;;;;;;;;35.33;31.33;14.10;32.20;;;;;;110334;1248;45840;-60
2023/02/10 04:35:08;;;;;;;;;37.00;33.00;14.10;32.50;;;;;;110357;1252;55525;-60
2023/02/10 04:37:35;;;;;;;;;36.00;33.00;14.10;32.50;;;;;;110349;1248;54249;-60
2023/02/10 04:40:02;;;;;;;;;34.33;30.00;14.10;32.50;;;;;;110491;1252;48876;-59
2023/02/10 04:42:32;;;;;;;;;38.00;33.00;14.10;32.30;;;;;;110354;1248;49229;-60
2023/02/10 04:44:59;;;;;;;;;34.00;31.67;14.10;32.50;;;;;;110437;1252;46491;-60
2023/02/10 04:47:27;;;;;;;;;39.00;33.00;14.10;32.30;;;;;;110498;1252;55177;-60
2023/02/10 04:49:55;;;;;;;;;41.00;33.00;14.10;32.30;;;;;;110420;1248;54308;-60
2023/02/10 04:52:22;;;;;;;;;37.33;32.33;14.10;32.30;;;;;;110317;1248;49758;-59
2023/02/10 04:54:49;;;;;;;;;37.33;31.00;14.10;32.30;;;;;;110281;1249;49262;-61
2023/02/10 04:57:16;;;;;;;;;34.50;29.50;14.10;32.30;;;;;;110427;1249;45436;-61
2023/02/10 04:59:43;;;;;;;;;33.67;29.33;14.10;32.30;;;;;;110375;1248;55299;-60
2023/02/10 05:02:10;;;;;;;;;35.67;31.67;14.10;32.30;;;;;;110434;1248;55005;-60
2023/02/10 05:04:37;;;;;;;;;37.00;33.00;14.00;32.20;;;;;;110443;1249;49614;-60
2023/02/10 05:07:04;;;;;;;;;38.50;31.50;14.00;32.20;;;;;;110388;1250;49698;-59
2023/02/10 05:09:31;;;;;;;;;34.50;29.50;14.10;32.20;;;;;;110396;1250;45502;-61
2023/02/10 05:11:58;;;;;;;;;33.75;31.00;14.00;32.20;;;;;;110465;1247;56159;-61
2023/02/10 05:14:25;;;;;;;;;35.00;31.00;14.00;32.20;;;;;;110524;1248;54637;-61
2023/02/10 05:16:52;;;;;;;;;37.00;33.00;14.00;32.20;;;;;;110540;1252;49124;-62
2023/02/10 05:19:19;;;;;;;;;41.50;31.00;14.00;32.10;;;;;;110534;1252;49907;-60
2023/02/10 05:21:46;;;;;;;;;38.00;31.00;14.00;32.10;;;;;;110565;1247;46616;-62
2023/02/10 05:24:13;;;;;;;;;31.67;28.33;14.00;32.70;;;;;;110540;1249;55042;-61
2023/02/10 05:26:40;;;;;;;;;35.50;31.00;14.00;32.40;;;;;;110525;1252;53833;-62
2023/02/10 05:29:07;;;;;;;;;33.00;30.00;14.00;32.10;;;;;;110502;1252;50385;-60
2023/02/10 05:31:34;;;;;;;;;28.50;27.25;14.00;32.10;;;;;;110512;1248;48847;-63
2023/02/10 05:34:01;;;;;;;;;36.50;31.00;14.00;32.10;;;;;;110505;1251;45895;-59
2023/02/10 05:36:28;;;;;;;;;32.00;30.33;14.00;32.20;;;;;;110487;1252;56292;-61
2023/02/10 05:41:40;;;;;;;;;35.00;31.00;14.00;32.20;;;;;;110519;1248;49324;-62
2023/02/10 05:44:07;;;;;;;;;34.33;31.33;14.00;32.40;;;;;;110494;1248;50094;-60
2023/02/10 05:46:34;;;;;;;;;39.00;34.00;14.00;32.20;;;;;;110532;1252;46707;-61
2023/02/10 05:49:01;;;;;;;;;33.33;28.67;14.00;32.20;;;;;;110544;1252;56657;-61
2023/02/10 05:51:28;;;;;;;;;31.67;28.33;13.90;32.10;;;;;;110482;1248;53764;-61
2023/02/10 05:53:55;;;;;;;;;32.00;30.67;13.90;32.10;;;;;;110466;1252;49889;-60
2023/02/10 05:56:22;;;;;;;;;37.00;33.00;13.90;32.10;;;;;;110496;1249;48999;-61
2023/02/10 05:58:49;;;;;;;;;37.00;32.00;13.90;32.10;;;;;;110559;1252;45473;-59
2023/02/10 06:01:16;;;;;;;;;35.00;31.00;13.90;32.10;;;;;;110524;1252;55048;-60
2023/02/10 06:03:43;;;;;;;;;30.00;28.50;13.90;32.10;;;;;;110223;1253;53552;-60
2023/02/10 06:06:10;;;;;;;;;34.50;31.00;13.90;32.20;;;;;;110486;1248;49726;-60
2023/02/10 06:08:36;;;;;;;;;34.00;31.00;13.90;32.10;;;;;;110559;1252;49475;-60
2023/02/10 06:11:04;;;;;;;;;40.00;33.00;13.90;32.30;;;;;;110454;1248;45583;-60
2023/02/10 06:13:31;;;;;;;;;32.00;29.00;13.90;32.20;;;;;;110472;1252;54820;-61
2023/02/10 06:15:58;;;;;;;;;37.00;32.00;13.90;32.20;;;;;;110482;1253;54122;-61
2023/02/10 06:18:25;;;;;;;;;42.00;34.00;13.90;32.20;;;;;;110421;1247;49493;-60
2023/02/10 06:20:52;;;;;;;;;39.00;33.00;13.90;32.20;;;;;;110445;1252;49175;-59
2023/02/10 06:23:19;;;;;;;;;38.00;33.00;13.80;32.30;;;;;;110517;1248;45532;-61
2023/02/10 06:25:46;;;;;;;;;34.00;31.00;13.80;32.20;;;;;;110471;1252;55685;-61
2023/02/10 06:28:14;;;;;;;;;40.50;34.00;13.80;32.20;;;;;;110448;1252;53987;-61
2023/02/10 06:30:42;;;;;;;;;38.00;31.00;13.80;32.20;;;;;;110471;1248;49441;-59
2023/02/10 06:33:09;;;;;;;;;36.67;31.00;13.80;32.40;;;;;;110441;1248;50066;-60
2023/02/10 06:35:36;;;;;;;;;36.00;33.00;13.80;32.40;;;;;;110476;1252;45709;-60
2023/02/10 06:38:03;;;;;;;;;39.67;32.33;13.80;32.20;;;;;;110487;1248;56140;-60
2023/02/10 06:40:30;;;;;;;;;33.00;28.00;13.80;32.20;;;;;;110439;1252;53556;-61
2023/02/10 06:42:57;;;;;;;;;35.00;30.67;13.80;32.10;;;;;;110447;1252;50180;-61
2023/02/10 06:45:24;;;;;;;;;39.00;32.50;13.80;32.10;;;;;;110533;1252;49242;-60
2023/02/10 06:47:51;;;;;;;;;33.00;31.00;13.80;32.70;;;;;;110176;1252;45776;-61
2023/02/10 06:50:17;;;;;;;;;34.00;31.00;13.80;32.20;;;;;;110428;1248;56040;-59
2023/02/10 06:52:46;;;;;;;;;35.50;31.00;13.80;32.20;;;;;;110443;1252;54172;-61
2023/02/10 06:55:13;;;;;;;;;36.00;31.67;13.80;32.30;;;;;;110480;1252;48996;-60
2023/02/10 06:57:41;;;;;;;;;38.00;34.00;13.80;32.30;;;;;;110434;1252;49652;-61
2023/02/10 07:00:11;;;;;;;;;35.33;31.00;13.80;32.30;;;;;;110478;1252;45265;-60
2023/02/10 07:02:38;;;;;;;;;39.00;31.00;13.80;32.40;;;;;;110268;1250;56760;-61
2023/02/10 07:05:07;;;;;;;;;42.00;35.00;13.80;32.40;;;;;;110470;1252;55372;-61
2023/02/10 07:07:35;;;;;;;;;37.00;32.50;13.80;32.30;;;;;;110466;1248;48970;-61
2023/02/10 07:10:03;;;;;;;;;41.50;33.00;13.80;32.30;;;;;;110423;1250;49487;-60
2023/02/10 07:12:30;;;;;;;;;39.00;33.00;13.80;32.30;;;;;;110340;1253;45558;-61
2023/02/10 07:14:57;;;;;;;;;42.00;33.00;13.80;32.30;;;;;;110423;1248;55182;-60
2023/02/10 07:17:24;;;;;;;;;34.00;32.00;13.80;32.20;;;;;;110424;1252;55099;-60
2023/02/10 07:19:51;;;;;;;;;34.00;31.00;13.90;32.20;;;;;;110448;1252;48976;-60
2023/02/10 07:22:20;;;;;;;;;37.00;34.00;13.90;32.20;;;;;;110501;1252;49223;-60
2023/02/10 07:24:47;;;;;;;;;39.67;31.33;13.90;32.10;;;;;;110478;1252;45663;-60
2023/02/10 07:27:14;;;;;;;;;37.50;33.50;13.90;32.10;;;;;;110436;1249;55638;-61
2023/02/10 07:29:41;;;;;;;;;36.00;32.50;13.90;32.20;;;;;;110548;1252;54378;-61
2023/02/10 07:32:08;;;;;;;;;42.00;33.00;13.90;32.20;;;;;;110488;1248;50343;-61
2023/02/10 07:34:35;;;;;;;;;38.00;31.00;13.90;32.00;;;;;;110521;1252;48897;-61
2023/02/10 07:37:02;;;;;;;;;43.00;34.00;13.90;32.10;;;;;;110467;1247;45316;-60
2023/02/10 07:39:29;;;;;;;;;37.25;33.75;13.90;32.00;;;;;;110445;1249;55476;-60
2023/02/10 07:41:56;;;;;;;;;40.50;33.50;13.90;32.00;;;;;;110406;1252;54011;-61
2023/02/10 07:44:23;;;;;;;;;41.50;33.00;13.90;32.10;;;;;;110440;1252;49724;-61
2023/02/10 07:46:52;;;;;;;;;42.33;36.00;13.90;32.10;;;;;;110379;1252;48848;-61
2023/02/10 07:49:19;;;;;;;;;42.00;34.00;13.90;32.10;;;;;;110396;1252;45307;-60
2023/02/10 07:51:46;;;;;;;;;47.00;37.33;13.90;32.20;;;;;;110357;1252;54980;-60
2023/02/10 07:54:13;;;;;;;;;39.00;33.00;13.90;32.30;;;;;;110415;1250;54784;-60
2023/02/10 07:56:40;;;;;;;;;43.00;35.67;13.90;32.10;;;;;;110399;1248;49350;-61
2023/02/10 07:59:07;;;;;;;;;40.50;33.50;13.90;32.20;;;;;;110383;1252;51999;-59
2023/02/10 08:01:40;;;;;;;;;42.25;37.00;13.90;32.00;;;;;;110524;1252;46176;-60
2023/02/10 08:04:11;;;;;;;;;48.00;34.50;13.90;32.00;;;;;;110501;1249;55494;-61
2023/02/10 08:06:38;;;;;;;;;46.67;35.00;13.90;32.00;;;;;;110408;1247;54070;-61
2023/02/10 08:09:06;;;;;;;;;47.00;39.00;13.90;32.00;;;;;;110410;1248;49346;-59
2023/02/10 08:11:33;;;;;;;;;42.00;35.33;13.90;32.00;;;;;;110277;1249;49587;-60
2023/02/10 08:14:02;;;;;;;;;45.00;38.00;14.00;32.10;;;;;;110430;1248;45884;-61
2023/02/10 08:16:29;;;;;;;;;40.33;34.00;13.90;32.00;;;;;;110516;1248;55801;-60
2023/02/10 08:18:56;;;;;;;;;46.33;37.00;14.00;32.10;;;;;;110424;1252;53260;-60
2023/02/10 08:21:25;;;;;;;;;45.75;36.00;13.90;32.00;;;;;;110516;1252;49481;-59
2023/02/10 08:23:54;;;;;;;;;42.00;35.00;13.90;32.10;;;;;;110473;1252;49016;-60
2023/02/10 08:26:22;;;;;;;;;42.00;36.50;13.90;31.90;;;;;;110453;1252;45876;-60
2023/02/10 08:28:50;;;;;;;;;49.50;39.50;14.00;32.10;;;;;;110390;1252;56878;-60
2023/02/10 08:31:17;;;;;;;;;43.25;36.75;14.00;32.10;;;;;;110359;1248;53850;-60
2023/02/10 08:33:44;;;;;;;;;42.67;36.00;14.00;32.20;;;;;;110359;1253;49374;-61
2023/02/10 08:36:14;;;;;;;;;45.00;37.00;14.00;32.20;;;;;;110272;1248;49876;-61
2023/02/10 08:38:41;;;;;;;;;47.50;37.00;14.00;32.00;;;;;;110531;1252;46376;-61
2023/02/10 08:41:08;;;;;;;;;44.50;38.00;14.00;32.00;;;;;;110493;1252;55758;-61
2023/02/10 08:43:36;;;;;;;;;43.00;36.00;14.10;32.30;;;;;;110473;1252;54791;-60
2023/02/10 08:46:03;;;;;;;;;40.00;35.00;14.10;32.10;;;;;;110498;1252;49351;-61
2023/02/10 08:48:32;;;;;;;;;46.50;36.00;14.10;32.00;;;;;;110542;1248;51264;-61
2023/02/10 08:50:59;;;;;;;;;42.25;36.25;14.10;31.90;;;;;;110351;1252;45916;-60
2023/02/10 08:53:26;;;;;;;;;42.00;36.00;14.10;31.90;;;;;;110570;1252;55848;-60
2023/02/10 08:55:58;;;;;;;;;50.33;42.33;14.10;32.20;;;;;;110507;1252;54263;-62
2023/02/10 08:58:25;;;;;;;;;40.50;36.00;14.10;31.90;;;;;;110536;1248;49115;-60
2023/02/10 09:00:52;;;;;;;;;49.00;37.00;14.20;31.40;;;;;;110492;1248;49743;-59
2023/02/10 09:03:19;;;;;;;;;47.33;37.33;14.20;31.80;;;;;;110500;1252;45888;-60
2023/02/10 09:05:48;;;;;;;;;45.33;36.67;14.20;31.80;;;;;;110529;1252;56948;-60
2023/02/10 09:08:16;;;;;;;;;51.00;40.00;14.20;31.70;;;;;;110206;1250;55057;-60
2023/02/10 09:10:45;;;;;;;;;46.50;38.50;14.30;31.80;;;;;;110446;1248;50215;-61
2023/02/10 09:13:13;;;;;;;;;47.00;40.00;14.30;31.70;;;;;;110422;1252;48992;-60
2023/02/10 09:15:42;;;;;;;;;50.67;39.00;14.30;31.70;;;;;;110534;1248;45618;-61
2023/02/10 09:18:09;;;;;;;;;45.67;37.00;14.40;31.70;;;;;;110511;1252;54998;-61
2023/02/10 09:20:37;;;;;;;;;49.75;39.75;14.40;31.60;;;;;;110468;1248;53651;-61
2023/02/10 09:23:04;;;;;;;;;43.00;36.00;14.40;32.10;;;;;;110477;1252;50351;-60
2023/02/10 09:25:31;;;;;;;;;47.00;37.00;14.50;31.60;;;;;;110554;1248;49404;-61
2023/02/10 09:27:58;;;;;;;;;50.67;39.67;14.50;31.60;;;;;;110571;1247;45687;-60
2023/02/10 09:30:26;;;;;;;;;48.00;37.50;14.50;31.60;;;;;;110463;1247;56243;-61
2023/02/10 09:32:54;;;;;;;;;46.00;38.00;14.50;31.60;;;;;;110457;1252;54940;-60
2023/02/10 09:35:21;;;;;;;;;52.50;41.00;14.40;31.50;;;;;;110461;1248;49213;-60
2023/02/10 09:37:48;;;;;;;;;50.67;42.00;14.50;31.90;;;;;;110324;1252;48978;-60
2023/02/10 09:40:19;;;;;;;;;45.00;37.00;14.50;31.60;;;;;;110540;1248;45681;-61
2023/02/10 09:43:14;;;;;;;;;49.00;41.00;14.50;31.60;;;;;;110492;1248;56018;-61
2023/02/10 09:45:41;;;;;;;;;42.50;37.00;14.50;31.70;;;;;;110319;1248;54791;-59
2023/02/10 09:48:19;;;;;;;;;47.50;38.50;14.60;31.50;;;;;;110396;1249;48985;-59
2023/02/10 09:51:02;;;;;;;;;51.00;41.00;14.60;31.40;;;;;;110452;1248;50864;-60
2023/02/10 09:53:30;;;;;;;;;49.67;40.67;14.70;31.50;;;;;;110490;1252;46346;-59
2023/02/10 09:56:02;;;;;;;;;46.00;36.50;14.70;31.40;;;;;;110473;1248;55964;-59
2023/02/10 09:58:49;;;;;;;;;52.00;41.00;14.70;31.30;;;;;;110501;1252;54304;-60
2023/02/10 10:01:20;;;;;;;;;47.00;40.00;14.80;31.40;;;;;;110465;1248;51779;-60
2023/02/10 10:04:12;;;;;;;;;46.00;37.00;14.80;31.30;;;;;;110490;1252;49315;-59
2023/02/10 10:06:46;;;;;;;;;49.00;41.00;14.90;31.30;;;;;;110462;1252;45975;-59
2023/02/10 10:09:31;;;;;;;;;48.00;41.00;14.90;31.20;;;;;;110471;1252;57117;-60
2023/02/10 10:11:59;;;;;;;;;52.00;43.00;15.00;31.20;;;;;;110429;1253;53950;-60
2023/02/10 10:14:26;;;;;;;;;53.00;41.00;15.00;31.70;;;;;;110450;1248;49434;-61
2023/02/10 10:17:16;;;;;;;;;51.25;40.50;15.00;31.30;;;;;;110513;1252;50596;-62
2023/02/10 10:20:08;;;;;;;;;46.50;37.00;15.00;31.00;;;;;;110410;1248;45251;-60
2023/02/10 10:22:53;;;;;;;;;50.33;39.33;15.10;31.00;;;;;;110489;1248;55122;-60
2023/02/10 10:25:43;;;;;;;;;48.00;40.50;15.10;31.20;;;;;;110502;1248;54112;-60
2023/02/10 10:28:48;;;;;;;;;54.00;42.00;15.20;30.90;;;;;;110511;1248;49200;-60
2023/02/10 10:31:23;;;;;;;;;51.00;40.00;15.20;31.00;;;;;;110481;1252;50087;-60
2023/02/10 10:33:58;;;;;;;;;47.00;40.00;15.30;30.70;;;;;;110342;1248;45574;-60
2023/02/10 10:36:42;;;;;;;;;47.00;39.00;15.30;30.90;;;;;;110240;1250;55544;-59
2023/02/10 10:39:42;;;;;;;;;48.00;39.33;15.40;30.60;;;;;;110315;1249;54244;-59
2023/02/10 10:42:18;;;;;;;;;45.67;38.67;15.50;30.60;;;;;;109907;1253;50040;-60
2023/02/10 10:44:47;;;;;;;;;49.00;40.00;15.60;30.50;;;;;;110430;1247;49745;-61
2023/02/10 10:47:39;;;;;;;;;49.50;40.00;15.60;30.30;;;;;;110253;1252;45589;-59
2023/02/10 10:50:15;;;;;;;;;47.33;39.00;15.70;30.50;;;;;;110375;1250;56359;-60
2023/02/10 10:52:43;;;;;;;;;45.00;37.50;15.70;30.20;;;;;;110446;1252;53868;-61
2023/02/10 10:55:28;;;;;;;;;49.00;40.00;15.80;30.40;;;;;;110454;1252;49581;-61
2023/02/10 10:57:56;;;;;;;;;46.00;39.00;15.80;30.10;;;;;;110410;1252;50755;-59
2023/02/10 11:00:25;;;;;;;;;47.00;38.00;15.90;30.10;;;;;;110486;1252;45122;-61
2023/02/10 11:03:00;;;;;;;;;46.33;37.67;15.90;30.00;;;;;;110447;1248;55519;-61
2023/02/10 11:05:34;;;;;;;;;49.00;39.00;16.00;29.80;;;;;;110446;1248;54107;-61
2023/02/10 11:08:01;;;;;;;;;50.00;40.00;16.00;30.00;;;;;;110367;1252;49966;-61
2023/02/10 11:10:51;;;;;;;;;49.00;39.00;16.10;29.90;;;;;;110287;1248;49903;-61
2023/02/10 11:13:26;;;;;;;;;45.00;38.00;16.10;29.90;;;;;;110256;1250;45206;-60
2023/02/10 11:16:03;;;;;;;;;48.00;38.00;16.20;29.90;;;;;;110224;1252;55440;-61
2023/02/10 11:18:30;;;;;;;;;49.00;40.00;16.20;30.00;;;;;;110273;1249;55023;-60
2023/02/10 11:20:59;;;;;;;;;48.50;39.00;16.30;29.90;;;;;;110441;1252;49710;-61
2023/02/10 11:23:27;;;;;;;;;45.67;37.00;16.30;29.80;;;;;;110399;1252;49859;-60
2023/02/10 11:26:01;;;;;;;;;49.00;38.00;16.30;29.80;;;;;;110218;1250;45163;-60
2023/02/10 11:28:31;;;;;;;;;45.00;35.00;16.40;29.80;;;;;;110405;1252;56023;-58
2023/02/10 11:31:02;;;;;;;;;45.00;37.00;16.40;29.40;;;;;;110448;1250;53713;-60
2023/02/10 11:33:32;;;;;;;;;47.00;38.50;16.50;29.80;;;;;;110351;1252;49592;-58
2023/02/10 11:36:08;;;;;;;;;45.00;37.00;16.50;29.70;;;;;;110307;1251;49525;-60
2023/02/10 11:38:35;;;;;;;;;46.25;38.00;16.50;29.70;;;;;;110492;1249;46143;-60
2023/02/10 11:41:08;;;;;;;;;49.50;38.00;16.60;29.70;;;;;;110269;1249;55423;-61
2023/02/10 11:43:47;;;;;;;;;52.33;41.00;16.60;29.70;;;;;;110142;1252;53597;-59
2023/02/10 11:46:26;;;;;;;;;49.00;36.00;16.70;29.70;;;;;;110464;1252;50004;-60
2023/02/10 11:49:03;;;;;;;;;47.25;38.75;16.70;30.00;;;;;;110155;1248;49397;-60
2023/02/10 11:51:30;;;;;;;;;50.67;39.33;16.80;29.60;;;;;;110400;1252;46347;-61
2023/02/10 11:53:58;;;;;;;;;46.00;36.00;16.90;29.60;;;;;;110470;1252;55974;-60
2023/02/10 11:59:35;;;;;;;;;44.00;35.00;16.90;29.60;;;;;;110402;1252;50251;-62
2023/02/10 12:02:33;;;;;;;;;41.00;35.00;17.00;29.60;;;;;;110387;1249;49673;-61
2023/02/10 12:05:16;;;;;;;;;42.00;36.33;17.00;29.50;;;;;;110338;1248;45770;-60
2023/02/10 12:08:13;;;;;;;;;40.00;33.00;17.00;29.50;;;;;;110471;1252;55861;-60
2023/02/10 12:10:56;;;;;;;;;44.33;36.33;17.00;29.70;;;;;;110411;1248;54236;-60
2023/02/10 12:13:36;;;;;;;;;44.00;36.00;17.10;29.50;;;;;;110497;1250;49000;-60
2023/02/10 12:16:28;;;;;;;;;39.50;33.50;17.10;29.40;;;;;;110340;1252;49218;-60
2023/02/10 12:19:04;;;;;;;;;46.50;37.00;17.10;29.40;;;;;;110258;1249;46659;-61
2023/02/10 12:22:07;;;;;;;;;49.00;39.00;17.20;29.40;;;;;;110215;1249;56096;-62
2023/02/10 12:25:04;;;;;;;;;41.75;35.00;17.20;29.60;;;;;;110453;1252;53824;-60
2023/02/10 12:27:53;;;;;;;;;50.00;37.33;17.20;29.50;;;;;;110502;1248;50199;-61
2023/02/10 12:30:20;;;;;;;;;42.00;35.00;17.20;29.40;;;;;;110385;1252;50416;-59
2023/02/10 12:32:59;;;;;;;;;47.00;38.33;17.30;29.50;;;;;;110357;1252;45326;-60
2023/02/10 12:36:04;;;;;;;;;40.00;34.00;17.20;29.50;;;;;;110375;1247;55334;-60
2023/02/10 12:38:41;;;;;;;;;45.67;37.33;17.30;29.50;;;;;;110446;1248;53263;-60
2023/02/10 12:41:19;;;;;;;;;49.00;38.00;17.30;29.40;;;;;;110392;1248;50011;-60
2023/02/10 12:44:23;;;;;;;;;47.00;38.00;17.30;29.40;;;;;;110406;1248;50526;-59